Time;durP1;ratioP1;P1;durP2;ratioP2;P2;SDS_P1;SDS_P2;PMS_P1;PMS_P2;Temp;Humidity;BMP_temperature;BMP_pressure;BME280_temperature;BME280_humidity;BME280_pressure;Samples;Min_cycle;Max_cycle;Signal;HPM_P1;HPM_P2
2021/12/04 00:02:04;;;;;;;54.60;26.52;;;;;;;;;;5013554;28;20059;-73
2021/12/04 00:04:35;;;;;;;52.13;25.83;;;;;;;;;;5046277;28;20048;-73
2021/12/04 00:07:01;;;;;;;59.80;26.25;;;;;;;;;;5042338;28;20102;-73
2021/12/04 00:09:29;;;;;;;56.40;26.75;;;;;;;;;;5040562;28;20481;-72
2021/12/04 00:11:58;;;;;;;52.38;25.23;;;;;;;;;;5027572;28;20365;-73
2021/12/04 00:14:24;;;;;;;49.05;24.15;;;;;;;;;;5052672;28;20059;-73
2021/12/04 00:16:50;;;;;;;54.35;25.48;;;;;;;;;;5039493;28;20060;-73
2021/12/04 00:19:17;;;;;;;57.03;25.98;;;;;;;;;;5036663;28;20502;-74
2021/12/04 00:21:43;;;;;;;56.75;26.60;;;;;;;;;;5051967;28;20053;-73
2021/12/04 00:24:10;;;;;;;64.35;26.92;;;;;;;;;;5036252;28;20630;-73
2021/12/04 00:26:36;;;;;;;68.28;28.27;;;;;;;;;;5043295;28;20113;-73
2021/12/04 00:29:02;;;;;;;69.60;27.40;;;;;;;;;;5036231;28;20076;-73
2021/12/04 00:31:29;;;;;;;67.30;27.00;;;;;;;;;;5036307;28;20068;-73
2021/12/04 00:33:55;;;;;;;69.68;29.65;;;;;;;;;;5019879;28;20128;-73
2021/12/04 00:50:05;;;;;;;57.35;25.48;;;;;;;;;;5025231;28;20041;-73
2021/12/04 00:52:32;;;;;;;62.20;25.20;;;;;;;;;;5023490;28;20046;-73
2021/12/04 00:54:58;;;;;;;77.47;27.60;;;;;;;;;;5054384;28;20063;-74
2021/12/04 00:57:24;;;;;;;72.72;27.02;;;;;;;;;;5037481;28;20080;-73
2021/12/04 00:59:50;;;;;;;72.18;27.30;;;;;;;;;;5038310;28;20092;-72
2021/12/04 01:02:20;;;;;;;87.95;29.05;;;;;;;;;;5028595;28;20397;-73
2021/12/04 01:04:46;;;;;;;84.07;28.80;;;;;;;;;;5034150;28;20085;-73
2021/12/04 01:07:12;;;;;;;83.97;29.08;;;;;;;;;;5032702;28;20061;-74
2021/12/04 01:09:39;;;;;;;76.32;26.40;;;;;;;;;;5035664;28;20136;-74
2021/12/04 01:12:05;;;;;;;100.97;30.13;;;;;;;;;;5019791;28;20037;-73
2021/12/04 01:14:34;;;;;;;64.43;25.50;;;;;;;;;;5035280;28;20088;-73
2021/12/04 01:17:00;;;;;;;64.43;27.08;;;;;;;;;;5018388;28;20406;-74
2021/12/04 01:19:29;;;;;;;64.50;26.80;;;;;;;;;;5034528;28;20128;-74
2021/12/04 01:21:55;;;;;;;77.40;27.35;;;;;;;;;;5048269;28;20048;-73
2021/12/04 01:24:21;;;;;;;71.63;27.63;;;;;;;;;;5038028;28;20140;-73
2021/12/04 01:26:48;;;;;;;73.38;28.05;;;;;;;;;;5036923;28;20052;-73
2021/12/04 01:29:15;;;;;;;66.38;27.00;;;;;;;;;;5033738;28;20140;-73
2021/12/04 01:31:41;;;;;;;84.35;28.73;;;;;;;;;;5042885;28;20080;-74
2021/12/04 01:34:07;;;;;;;71.28;27.50;;;;;;;;;;5034927;28;20056;-73
2021/12/04 01:36:33;;;;;;;72.45;28.65;;;;;;;;;;5034248;28;20438;-73
2021/12/04 01:39:00;;;;;;;75.55;27.70;;;;;;;;;;5035591;28;20106;-74
2021/12/04 01:41:26;;;;;;;65.43;27.45;;;;;;;;;;5034244;28;20049;-73
2021/12/04 01:43:52;;;;;;;77.35;28.88;;;;;;;;;;5016979;28;20092;-74
2021/12/04 01:46:19;;;;;;;84.88;31.50;;;;;;;;;;5018076;28;20048;-74
2021/12/04 01:48:45;;;;;;;84.05;29.20;;;;;;;;;;5033472;28;20048;-73
2021/12/04 01:51:11;;;;;;;83.20;29.15;;;;;;;;;;5012774;28;20123;-73
2021/12/04 01:53:37;;;;;;;75.75;28.83;;;;;;;;;;5032073;28;20445;-74
2021/12/04 01:56:04;;;;;;;76.65;28.65;;;;;;;;;;5016437;28;20053;-73
2021/12/04 01:58:30;;;;;;;69.13;27.73;;;;;;;;;;5032718;28;20543;-73
2021/12/04 02:00:57;;;;;;;103.30;31.98;;;;;;;;;;5033751;28;20045;-74
2021/12/04 02:03:23;;;;;;;108.40;33.30;;;;;;;;;;5016695;28;20053;-73
2021/12/04 02:05:50;;;;;;;71.88;28.80;;;;;;;;;;5045453;28;20135;-74
2021/12/04 02:08:17;;;;;;;84.60;30.38;;;;;;;;;;5020526;28;20457;-74
2021/12/04 02:10:44;;;;;;;92.32;30.92;;;;;;;;;;5000600;28;20038;-73
2021/12/04 02:13:10;;;;;;;106.53;32.83;;;;;;;;;;5034379;28;20135;-73
2021/12/04 02:15:36;;;;;;;70.28;27.65;;;;;;;;;;5037575;28;20091;-73
2021/12/04 02:18:03;;;;;;;86.43;28.05;;;;;;;;;;5053396;28;20160;-73
2021/12/04 02:20:32;;;;;;;84.55;28.10;;;;;;;;;;5034536;28;20053;-74
2021/12/04 02:22:59;;;;;;;119.15;30.08;;;;;;;;;;5001213;28;20060;-73
2021/12/04 02:25:25;;;;;;;130.93;35.08;;;;;;;;;;5033811;28;20045;-73
2021/12/04 02:27:51;;;;;;;82.40;27.77;;;;;;;;;;5034213;28;20128;-73
2021/12/04 02:30:19;;;;;;;100.07;30.02;;;;;;;;;;5033586;28;20045;-73
2021/12/04 02:32:45;;;;;;;83.53;27.65;;;;;;;;;;5016803;28;20045;-73
2021/12/04 02:35:12;;;;;;;117.78;33.70;;;;;;;;;;5033838;28;20145;-73
2021/12/04 02:37:39;;;;;;;94.57;31.15;;;;;;;;;;5033656;28;20097;-73
2021/12/04 02:40:06;;;;;;;83.88;28.60;;;;;;;;;;5032245;28;20393;-74
2021/12/04 02:42:32;;;;;;;105.47;33.83;;;;;;;;;;5016048;28;20045;-72
2021/12/04 02:44:59;;;;;;;96.03;30.15;;;;;;;;;;5034119;28;20045;-74
2021/12/04 02:47:26;;;;;;;88.45;28.45;;;;;;;;;;5034414;28;20045;-73
2021/12/04 02:49:52;;;;;;;101.18;28.75;;;;;;;;;;5033932;28;20061;-72
2021/12/04 02:52:19;;;;;;;89.15;26.75;;;;;;;;;;5032864;28;20053;-73
2021/12/04 02:54:46;;;;;;;167.93;36.85;;;;;;;;;;5051222;28;20465;-72
2021/12/04 02:57:13;;;;;;;78.55;24.38;;;;;;;;;;5046500;28;20053;-73
2021/12/04 02:59:40;;;;;;;100.57;27.00;;;;;;;;;;5034121;28;20053;-73
2021/12/04 03:02:10;;;;;;;102.28;29.60;;;;;;;;;;5031197;28;20414;-73
2021/12/04 03:04:36;;;;;;;142.18;32.15;;;;;;;;;;5045830;28;20128;-74
2021/12/04 03:07:02;;;;;;;116.43;30.30;;;;;;;;;;5033151;28;20057;-73
2021/12/04 03:09:28;;;;;;;133.98;32.08;;;;;;;;;;5033976;28;20114;-72
2021/12/04 03:11:54;;;;;;;81.32;26.73;;;;;;;;;;5016513;28;20046;-73
2021/12/04 03:14:21;;;;;;;68.10;24.05;;;;;;;;;;5016870;28;20053;-72
2021/12/04 03:16:48;;;;;;;69.53;24.80;;;;;;;;;;5037014;28;20099;-73
2021/12/04 03:19:17;;;;;;;77.18;24.42;;;;;;;;;;5034130;28;20468;-72
2021/12/04 03:21:43;;;;;;;114.47;27.50;;;;;;;;;;4999999;28;20100;-73
2021/12/04 03:24:12;;;;;;;87.82;26.20;;;;;;;;;;5040567;28;20057;-73
2021/12/04 03:26:39;;;;;;;75.25;24.48;;;;;;;;;;5015185;28;20064;-73
2021/12/04 03:29:09;;;;;;;125.05;28.73;;;;;;;;;;5034289;28;20532;-72
2021/12/04 03:42:16;;;;;;;97.97;27.05;;;;;;;;;;5015594;28;20053;-73
2021/12/04 03:44:43;;;;;;;78.38;24.55;;;;;;;;;;5017505;28;20133;-73
2021/12/04 03:47:10;;;;;;;104.10;27.42;;;;;;;;;;5017058;28;20125;-74
2021/12/04 03:49:38;;;;;;;67.82;25.23;;;;;;;;;;5027533;28;20045;-73
2021/12/04 03:52:04;;;;;;;83.13;25.42;;;;;;;;;;5036540;28;20068;-72
2021/12/04 03:54:30;;;;;;;69.93;24.20;;;;;;;;;;5032926;28;20057;-72
2021/12/04 03:57:06;;;;;;;80.85;27.05;;;;;;;;;;5017645;28;20089;-72
2021/12/04 03:59:37;;;;;;;65.63;23.23;;;;;;;;;;5017357;28;20053;-73
2021/12/04 04:02:04;;;;;;;72.30;24.17;;;;;;;;;;5017251;28;20534;-73
2021/12/04 04:04:30;;;;;;;94.30;25.40;;;;;;;;;;5009661;28;20493;-73
2021/12/04 04:06:58;;;;;;;109.55;27.90;;;;;;;;;;5031706;28;20455;-74
2021/12/04 04:09:25;;;;;;;117.70;29.65;;;;;;;;;;5017326;28;20057;-73
2021/12/04 04:11:51;;;;;;;72.13;24.90;;;;;;;;;;5017341;28;20385;-72
2021/12/04 04:14:17;;;;;;;76.38;24.48;;;;;;;;;;5015986;28;20053;-73
2021/12/04 04:16:43;;;;;;;83.72;24.45;;;;;;;;;;5016904;28;20108;-72
2021/12/04 04:19:10;;;;;;;65.50;21.63;;;;;;;;;;5015960;28;20070;-72
2021/12/04 04:21:39;;;;;;;66.22;23.75;;;;;;;;;;5016451;28;20050;-73
2021/12/04 04:24:09;;;;;;;60.40;21.63;;;;;;;;;;5017052;28;20077;-74
2021/12/04 04:26:36;;;;;;;69.90;25.13;;;;;;;;;;5000031;28;20054;-72
2021/12/04 04:29:03;;;;;;;57.80;21.25;;;;;;;;;;5017701;28;20062;-75
2021/12/04 04:31:30;;;;;;;79.65;24.52;;;;;;;;;;5024323;28;20053;-74
2021/12/04 04:34:07;;;;;;;105.07;28.45;;;;;;;;;;5019746;28;20053;-74
2021/12/04 05:14:38;;;;;;;70.65;21.65;;;;;;;;;;5035880;28;20079;-73
2021/12/04 05:17:08;;;;;;;81.72;23.33;;;;;;;;;;5034280;28;20120;-72
2021/12/04 05:22:04;;;;;;;75.97;23.27;;;;;;;;;;5021619;28;20053;-74
2021/12/04 05:24:30;;;;;;;57.20;20.85;;;;;;;;;;5016401;28;20161;-72
2021/12/04 05:26:56;;;;;;;61.30;20.98;;;;;;;;;;5015220;28;20112;-73
2021/12/04 05:29:23;;;;;;;71.05;21.75;;;;;;;;;;5024564;28;20045;-73
2021/12/04 05:31:49;;;;;;;66.57;22.20;;;;;;;;;;5035504;28;20064;-74
2021/12/04 05:34:15;;;;;;;56.55;20.13;;;;;;;;;;5020406;28;20056;-73
2021/12/04 05:36:41;;;;;;;62.97;21.13;;;;;;;;;;5015789;28;20480;-73
2021/12/04 05:39:07;;;;;;;61.33;20.95;;;;;;;;;;5025937;28;20053;-73
2021/12/04 05:41:34;;;;;;;76.82;21.83;;;;;;;;;;5016022;28;20450;-73
2021/12/04 05:44:05;;;;;;;81.13;22.10;;;;;;;;;;5028219;28;20369;-73
2021/12/04 05:46:37;;;;;;;80.82;22.92;;;;;;;;;;5017715;28;20041;-72
2021/12/04 05:49:10;;;;;;;61.70;21.25;;;;;;;;;;5035396;28;20045;-72
2021/12/04 05:57:07;;;;;;;64.80;20.50;;;;;;;;;;5019690;28;20076;-74
2021/12/04 05:59:33;;;;;;;56.53;19.42;;;;;;;;;;5034729;28;20224;-73
2021/12/04 06:02:00;;;;;;;55.47;18.52;;;;;;;;;;5049983;28;20052;-73
2021/12/04 06:04:31;;;;;;;46.65;18.58;;;;;;;;;;5053308;28;20437;-73
2021/12/04 06:06:57;;;;;;;52.85;18.58;;;;;;;;;;5054320;28;20045;-74
2021/12/04 06:09:24;;;;;;;58.20;18.52;;;;;;;;;;5054448;28;20071;-73
2021/12/04 06:11:50;;;;;;;53.10;19.50;;;;;;;;;;5053668;28;20114;-73
2021/12/04 06:14:16;;;;;;;72.22;20.23;;;;;;;;;;5025898;28;20123;-74
2021/12/04 06:16:42;;;;;;;78.70;22.35;;;;;;;;;;5046187;28;20073;-73
2021/12/04 06:19:14;;;;;;;71.53;21.23;;;;;;;;;;5017587;28;20053;-73
2021/12/04 06:24:25;;;;;;;64.05;21.70;;;;;;;;;;5034740;28;20053;-73
2021/12/04 06:26:51;;;;;;;83.05;22.17;;;;;;;;;;5020723;28;20058;-73
2021/12/04 06:29:17;;;;;;;64.95;19.58;;;;;;;;;;5027581;28;20131;-72
2021/12/04 06:31:43;;;;;;;66.82;21.38;;;;;;;;;;5036836;28;20045;-73
2021/12/04 06:34:09;;;;;;;61.22;20.67;;;;;;;;;;5044524;28;20380;-74
2021/12/04 06:36:37;;;;;;;55.13;20.02;;;;;;;;;;5016840;28;20057;-73
2021/12/04 06:39:04;;;;;;;63.03;20.65;;;;;;;;;;5026921;28;20491;-73
2021/12/04 06:41:30;;;;;;;84.07;23.00;;;;;;;;;;5053584;28;20059;-73
2021/12/04 06:43:56;;;;;;;48.58;17.90;;;;;;;;;;5020297;28;20053;-73
2021/12/04 06:46:23;;;;;;;47.60;19.27;;;;;;;;;;5035799;28;20049;-74
2021/12/04 06:49:02;;;;;;;52.75;19.73;;;;;;;;;;5054035;28;20041;-73
2021/12/04 06:56:35;;;;;;;52.47;20.58;;;;;;;;;;5034081;28;20049;-74
2021/12/04 06:59:05;;;;;;;50.35;19.08;;;;;;;;;;5033894;28;20049;-73
2021/12/04 07:01:32;;;;;;;58.72;21.15;;;;;;;;;;5037722;28;20049;-73
2021/12/04 07:03:58;;;;;;;63.90;20.98;;;;;;;;;;5034252;28;20049;-75
2021/12/04 07:06:24;;;;;;;48.85;19.38;;;;;;;;;;5033867;28;20157;-73
2021/12/04 07:08:50;;;;;;;62.05;20.80;;;;;;;;;;5053749;28;20087;-73
2021/12/04 07:11:17;;;;;;;52.92;18.95;;;;;;;;;;5053921;28;20465;-74
2021/12/04 07:13:43;;;;;;;56.13;19.48;;;;;;;;;;5037971;28;20041;-73
2021/12/04 07:16:12;;;;;;;47.00;19.25;;;;;;;;;;5035985;28;20076;-74
2021/12/04 07:18:38;;;;;;;54.67;20.10;;;;;;;;;;5038181;28;20499;-74
2021/12/04 07:21:04;;;;;;;55.15;19.52;;;;;;;;;;5037345;28;20089;-73
2021/12/04 07:23:31;;;;;;;56.45;20.23;;;;;;;;;;5037931;28;20053;-73
2021/12/04 07:25:58;;;;;;;53.38;20.92;;;;;;;;;;5039625;28;20076;-73
2021/12/04 07:28:25;;;;;;;60.47;22.02;;;;;;;;;;5036813;28;20376;-73
2021/12/04 07:30:51;;;;;;;55.35;21.50;;;;;;;;;;5020482;28;20053;-73
2021/12/04 07:33:17;;;;;;;58.67;20.13;;;;;;;;;;5020094;28;20392;-74
2021/12/04 07:35:44;;;;;;;81.22;22.73;;;;;;;;;;5032887;28;20042;-75
2021/12/04 07:38:10;;;;;;;68.30;22.05;;;;;;;;;;5037803;28;20140;-74
2021/12/04 07:40:38;;;;;;;58.58;20.80;;;;;;;;;;5037482;28;20049;-74
2021/12/04 07:43:04;;;;;;;63.47;21.00;;;;;;;;;;5037063;28;20459;-73
2021/12/04 07:45:30;;;;;;;49.47;19.90;;;;;;;;;;5003943;28;20195;-74
2021/12/04 07:47:56;;;;;;;58.83;20.17;;;;;;;;;;5037259;28;20077;-74
2021/12/04 07:50:23;;;;;;;50.88;20.52;;;;;;;;;;5020214;28;20045;-74
2021/12/04 07:52:49;;;;;;;70.93;21.02;;;;;;;;;;5036737;28;20469;-73
2021/12/04 07:55:16;;;;;;;86.85;24.08;;;;;;;;;;5020266;28;20049;-74
2021/12/04 07:57:42;;;;;;;86.38;23.35;;;;;;;;;;5019221;28;20480;-73
2021/12/04 08:00:10;;;;;;;60.50;20.63;;;;;;;;;;5055966;28;20076;-73
2021/12/04 08:02:37;;;;;;;75.10;23.48;;;;;;;;;;5036802;28;20061;-74
2021/12/04 08:05:04;;;;;;;66.30;22.17;;;;;;;;;;5002868;28;20045;-73
2021/12/04 08:07:30;;;;;;;48.65;19.25;;;;;;;;;;5036306;28;20064;-74
2021/12/04 08:09:56;;;;;;;61.13;20.45;;;;;;;;;;5036722;28;20473;-74
2021/12/04 08:12:22;;;;;;;48.10;20.00;;;;;;;;;;5019227;28;20057;-72
2021/12/04 08:14:48;;;;;;;55.25;19.70;;;;;;;;;;5030977;28;20041;-74
2021/12/04 08:17:14;;;;;;;74.22;20.92;;;;;;;;;;5037429;28;20124;-74
2021/12/04 08:19:41;;;;;;;57.58;18.92;;;;;;;;;;5042587;28;20187;-75
2021/12/04 08:22:07;;;;;;;54.42;20.33;;;;;;;;;;5019200;28;20202;-73
2021/12/04 08:24:33;;;;;;;67.28;21.27;;;;;;;;;;5036976;28;20041;-74
2021/12/04 08:27:01;;;;;;;57.33;19.17;;;;;;;;;;5035179;28;20065;-74
2021/12/04 08:29:27;;;;;;;58.55;19.48;;;;;;;;;;5012391;28;20190;-74
2021/12/04 08:31:53;;;;;;;53.55;19.35;;;;;;;;;;5020473;28;20048;-73
2021/12/04 08:34:23;;;;;;;49.22;18.60;;;;;;;;;;5036656;28;20088;-73
2021/12/04 08:36:51;;;;;;;36.50;17.15;;;;;;;;;;5036412;28;20125;-73
2021/12/04 08:39:17;;;;;;;39.53;16.15;;;;;;;;;;5018723;28;20064;-73
2021/12/04 08:41:43;;;;;;;34.13;16.23;;;;;;;;;;5014248;28;20053;-72
2021/12/04 08:44:09;;;;;;;58.88;17.98;;;;;;;;;;5041510;28;20061;-72
2021/12/04 08:46:37;;;;;;;50.00;17.23;;;;;;;;;;5020150;28;20107;-73
2021/12/04 08:49:04;;;;;;;54.28;18.67;;;;;;;;;;5023470;28;20487;-76
2021/12/04 08:51:30;;;;;;;40.42;16.60;;;;;;;;;;5056436;28;20049;-72
2021/12/04 08:53:56;;;;;;;47.53;18.02;;;;;;;;;;5020359;28;20088;-76
2021/12/04 08:56:23;;;;;;;42.65;17.15;;;;;;;;;;5038380;28;20342;-72
2021/12/04 08:58:49;;;;;;;65.10;20.08;;;;;;;;;;5037978;28;20445;-81
2021/12/04 09:01:23;;;;;;;58.35;18.90;;;;;;;;;;5050321;28;20424;-73
2021/12/04 09:03:49;;;;;;;50.65;17.40;;;;;;;;;;5025363;28;20449;-72
2021/12/04 09:06:18;;;;;;;91.40;21.25;;;;;;;;;;5017532;28;20081;-73
2021/12/04 09:08:45;;;;;;;88.78;22.40;;;;;;;;;;5001891;28;20057;-79
2021/12/04 09:11:19;;;;;;;48.95;17.88;;;;;;;;;;5019300;28;20528;-73
2021/12/04 09:13:46;;;;;;;45.90;17.15;;;;;;;;;;5035654;28;20045;-74
2021/12/04 09:16:15;;;;;;;237.90;34.08;;;;;;;;;;5038161;28;20053;-73
2021/12/04 09:18:41;;;;;;;54.42;17.48;;;;;;;;;;5048221;28;20037;-73
2021/12/04 09:21:10;;;;;;;41.95;17.73;;;;;;;;;;5035895;28;20133;-74
2021/12/04 09:23:39;;;;;;;45.85;17.73;;;;;;;;;;5036603;28;20115;-73
2021/12/04 09:26:09;;;;;;;49.25;18.17;;;;;;;;;;5038110;28;20053;-75
2021/12/04 09:28:54;;;;;;;49.42;17.08;;;;;;;;;;5041189;28;20521;-75
2021/12/04 10:12:39;;;;;;;44.22;17.00;;;;;;;;;;5054118;28;20428;-75
2021/12/04 10:33:56;;;;;;;47.80;17.35;;;;;;;;;;5016860;28;20136;-74
2021/12/04 10:36:33;;;;;;;55.47;18.25;;;;;;;;;;5043997;28;20120;-72
2021/12/04 10:39:00;;;;;;;46.60;17.25;;;;;;;;;;5049029;28;20553;-73
2021/12/04 10:41:39;;;;;;;41.80;15.98;;;;;;;;;;5044841;28;20045;-74
2021/12/04 10:44:25;;;;;;;42.72;16.50;;;;;;;;;;5017061;28;20049;-85
2021/12/04 10:47:04;;;;;;;34.95;15.93;;;;;;;;;;5033197;28;20034;-77
2021/12/04 10:49:38;;;;;;;35.58;17.98;;;;;;;;;;5003640;28;20128;-73
2021/12/04 10:52:05;;;;;;;39.53;19.45;;;;;;;;;;5040272;28;20102;-75
2021/12/04 10:54:39;;;;;;;29.15;15.35;;;;;;;;;;5040960;28;20055;-82
2021/12/04 10:57:55;;;;;;;31.65;15.07;;;;;;;;;;5048069;28;20045;-75
2021/12/04 11:03:04;;;;;;;28.02;14.20;;;;;;;;;;5013829;28;20147;-77
2021/12/04 11:36:30;;;;;;;25.33;14.05;;;;;;;;;;5036438;28;20049;-76
2021/12/04 11:44:08;;;;;;;26.67;14.48;;;;;;;;;;5035943;28;20053;-74
2021/12/04 11:46:45;;;;;;;32.00;15.07;;;;;;;;;;5042218;28;20045;-74
2021/12/04 11:49:12;;;;;;;32.80;15.30;;;;;;;;;;5033960;28;20457;-76
2021/12/04 11:51:58;;;;;;;33.60;16.08;;;;;;;;;;5033537;28;20037;-74
2021/12/04 11:54:27;;;;;;;29.73;15.05;;;;;;;;;;5033835;28;20392;-75
2021/12/04 11:57:07;;;;;;;36.47;16.88;;;;;;;;;;5016796;28;20361;-75
2021/12/04 11:59:34;;;;;;;42.60;18.95;;;;;;;;;;5016479;28;20046;-75
2021/12/04 12:02:01;;;;;;;34.42;15.75;;;;;;;;;;5016539;28;20049;-75
2021/12/04 12:04:38;;;;;;;33.38;15.70;;;;;;;;;;5020019;28;20432;-75
2021/12/04 12:07:32;;;;;;;31.70;15.55;;;;;;;;;;5038193;28;20037;-80
2021/12/04 12:10:04;;;;;;;46.95;18.85;;;;;;;;;;5017377;28;20049;-76
2021/12/04 12:12:37;;;;;;;27.73;14.25;;;;;;;;;;5003906;28;20052;-74
2021/12/04 12:15:17;;;;;;;22.98;13.02;;;;;;;;;;5040211;28;20417;-76
2021/12/04 12:17:44;;;;;;;33.00;16.58;;;;;;;;;;5036538;28;20110;-75
2021/12/04 12:20:15;;;;;;;27.00;14.48;;;;;;;;;;5018879;28;20042;-75
2021/12/04 12:22:56;;;;;;;41.97;18.05;;;;;;;;;;5018962;28;20534;-75
2021/12/04 12:25:33;;;;;;;36.45;16.42;;;;;;;;;;5019723;28;20423;-74
2021/12/04 12:37:16;;;;;;;27.17;13.43;;;;;;;;;;5040167;28;20054;-76
2021/12/04 12:39:56;;;;;;;24.00;14.07;;;;;;;;;;5002728;28;20064;-74
2021/12/04 12:42:27;;;;;;;30.45;14.82;;;;;;;;;;5015586;28;20085;-75
2021/12/04 12:44:53;;;;;;;25.33;15.40;;;;;;;;;;5028347;28;20129;-74
2021/12/04 12:47:21;;;;;;;23.88;13.73;;;;;;;;;;5016049;28;20125;-74
2021/12/04 12:49:48;;;;;;;23.67;13.65;;;;;;;;;;5015876;28;20526;-75
2021/12/04 12:52:25;;;;;;;22.65;13.75;;;;;;;;;;5016300;28;20042;-75
2021/12/04 12:54:54;;;;;;;24.02;13.18;;;;;;;;;;5016479;28;20058;-74
2021/12/04 12:57:24;;;;;;;25.02;13.73;;;;;;;;;;5025732;28;20057;-74
2021/12/04 13:11:42;;;;;;;21.88;12.38;;;;;;;;;;5016423;28;20061;-76
2021/12/04 13:14:13;;;;;;;22.45;13.57;;;;;;;;;;5016808;28;20124;-72
2021/12/04 13:16:43;;;;;;;23.30;13.30;;;;;;;;;;5015912;28;20046;-76
2021/12/04 13:19:11;;;;;;;26.95;13.95;;;;;;;;;;5014636;28;20436;-74
2021/12/04 13:21:41;;;;;;;25.58;14.07;;;;;;;;;;5030399;28;20441;-73
2021/12/04 13:24:12;;;;;;;24.65;13.15;;;;;;;;;;4998812;28;20104;-76
2021/12/04 13:26:49;;;;;;;25.88;14.27;;;;;;;;;;5015319;28;20458;-75
2021/12/04 13:29:16;;;;;;;23.67;13.65;;;;;;;;;;5026877;28;20060;-75
2021/12/04 13:31:42;;;;;;;23.55;13.43;;;;;;;;;;5016905;28;20041;-74
2021/12/04 13:34:11;;;;;;;24.60;13.18;;;;;;;;;;5023837;28;20057;-73
2021/12/04 13:36:38;;;;;;;24.48;13.77;;;;;;;;;;5015648;28;20065;-74
2021/12/04 13:39:07;;;;;;;24.30;14.23;;;;;;;;;;4998671;28;20053;-74
2021/12/04 13:41:33;;;;;;;25.75;13.68;;;;;;;;;;5016487;28;20050;-76
2021/12/04 13:44:00;;;;;;;28.65;14.50;;;;;;;;;;5038426;28;20040;-74
2021/12/04 13:46:27;;;;;;;26.92;13.05;;;;;;;;;;5018642;28;20049;-74
2021/12/04 13:48:59;;;;;;;26.25;13.98;;;;;;;;;;5036622;28;20059;-76
2021/12/04 13:51:26;;;;;;;24.17;13.63;;;;;;;;;;5017894;28;20060;-76
2021/12/04 13:53:52;;;;;;;22.48;12.85;;;;;;;;;;5038718;28;20033;-75
2021/12/04 13:56:19;;;;;;;22.58;12.90;;;;;;;;;;5040674;28;20084;-77
2021/12/04 13:58:45;;;;;;;27.70;13.45;;;;;;;;;;5045163;28;20520;-76
2021/12/04 14:01:11;;;;;;;20.40;12.13;;;;;;;;;;5035279;28;20049;-76
2021/12/04 14:03:38;;;;;;;25.40;13.63;;;;;;;;;;5042486;28;20037;-76
2021/12/04 14:06:09;;;;;;;24.75;14.27;;;;;;;;;;5042310;28;20134;-74
2021/12/04 14:08:35;;;;;;;22.45;12.73;;;;;;;;;;5027879;28;20048;-75
2021/12/04 14:11:02;;;;;;;26.45;14.23;;;;;;;;;;5028440;28;20124;-75
2021/12/04 14:13:28;;;;;;;26.58;13.63;;;;;;;;;;5032179;28;20351;-75
2021/12/04 14:15:55;;;;;;;22.95;12.85;;;;;;;;;;5029946;28;20048;-76
2021/12/04 14:18:22;;;;;;;26.80;13.98;;;;;;;;;;5048481;28;20060;-75
2021/12/04 14:20:50;;;;;;;25.08;13.98;;;;;;;;;;5050596;28;20247;-75
2021/12/04 14:23:16;;;;;;;23.17;12.60;;;;;;;;;;5041433;28;20048;-77
2021/12/04 14:26:03;;;;;;;23.10;13.07;;;;;;;;;;5025305;28;20461;-85
2021/12/04 14:28:31;;;;;;;24.23;13.40;;;;;;;;;;5037742;28;20087;-75
2021/12/04 14:31:00;;;;;;;24.15;12.68;;;;;;;;;;5019371;28;20496;-82
2021/12/04 14:33:32;;;;;;;23.02;13.20;;;;;;;;;;5013965;28;20072;-74
2021/12/04 14:36:01;;;;;;;20.52;12.18;;;;;;;;;;5034068;28;20095;-76
2021/12/04 14:38:28;;;;;;;24.30;13.18;;;;;;;;;;5023261;28;20091;-84
2021/12/04 14:41:07;;;;;;;22.42;13.38;;;;;;;;;;5032904;28;20110;-87
2021/12/04 14:43:37;;;;;;;21.75;12.95;;;;;;;;;;5005261;28;20141;-78
2021/12/04 14:46:05;;;;;;;25.52;14.18;;;;;;;;;;5040633;28;20049;-75
2021/12/04 14:48:35;;;;;;;24.10;12.68;;;;;;;;;;5023736;28;20492;-75
2021/12/04 14:51:13;;;;;;;24.42;13.95;;;;;;;;;;5037060;28;20068;-75
2021/12/04 14:53:43;;;;;;;27.00;14.30;;;;;;;;;;5036348;28;20063;-75
2021/12/04 14:56:10;;;;;;;24.88;14.32;;;;;;;;;;5036153;28;20103;-77
2021/12/04 14:58:36;;;;;;;28.13;14.52;;;;;;;;;;5053371;28;20133;-76
2021/12/04 15:01:07;;;;;;;25.58;14.85;;;;;;;;;;5049346;28;20049;-76
2021/12/04 15:03:33;;;;;;;28.45;16.27;;;;;;;;;;5021341;28;20415;-76
2021/12/04 15:06:02;;;;;;;28.75;15.70;;;;;;;;;;5018702;28;20048;-75
2021/12/04 15:08:31;;;;;;;27.90;14.70;;;;;;;;;;5032118;28;20034;-75
2021/12/04 15:11:03;;;;;;;25.38;15.30;;;;;;;;;;5042783;28;20135;-74
2021/12/04 15:13:30;;;;;;;29.50;15.93;;;;;;;;;;5027371;28;20045;-74
2021/12/04 15:16:03;;;;;;;34.17;19.30;;;;;;;;;;5004607;28;20118;-74
2021/12/04 15:18:33;;;;;;;55.30;32.88;;;;;;;;;;5036787;28;20041;-74
2021/12/04 15:21:01;;;;;;;33.22;18.77;;;;;;;;;;5046428;28;20041;-83
2021/12/04 15:23:29;;;;;;;40.75;23.35;;;;;;;;;;5016279;28;20098;-76
2021/12/04 15:25:57;;;;;;;38.20;22.13;;;;;;;;;;5018940;28;20457;-80
2021/12/04 15:28:25;;;;;;;33.55;17.58;;;;;;;;;;5032995;28;20054;-76
2021/12/04 15:30:53;;;;;;;37.92;17.58;;;;;;;;;;5033954;28;20111;-76
2021/12/04 15:33:28;;;;;;;27.42;15.93;;;;;;;;;;5028447;28;20350;-76
2021/12/04 15:35:56;;;;;;;38.78;20.85;;;;;;;;;;5045125;28;20053;-75
2021/12/04 15:38:38;;;;;;;36.53;18.23;;;;;;;;;;5037130;28;20050;-74
2021/12/04 15:41:27;;;;;;;41.28;20.60;;;;;;;;;;5045042;28;20053;-78
2021/12/04 15:47:02;;;;;;;40.63;20.98;;;;;;;;;;5029488;28;20064;-79
2021/12/04 15:55:05;;;;;;;43.97;23.67;;;;;;;;;;5040881;28;20456;-76
2021/12/04 15:57:31;;;;;;;34.63;16.30;;;;;;;;;;5024641;28;20040;-77
2021/12/04 16:00:00;;;;;;;34.30;17.50;;;;;;;;;;5048206;28;20125;-74
2021/12/04 16:02:34;;;;;;;32.53;16.48;;;;;;;;;;5019797;28;20121;-75
2021/12/04 16:05:06;;;;;;;36.20;15.57;;;;;;;;;;5040335;28;20055;-75
2021/12/04 16:07:33;;;;;;;29.30;15.20;;;;;;;;;;5054274;28;20345;-73
2021/12/04 16:10:04;;;;;;;33.75;16.08;;;;;;;;;;5026902;28;20050;-75
2021/12/04 16:12:30;;;;;;;29.00;15.63;;;;;;;;;;5041524;28;20045;-74
2021/12/04 16:14:57;;;;;;;26.70;13.98;;;;;;;;;;5019965;28;20045;-75
2021/12/04 16:17:24;;;;;;;32.28;14.30;;;;;;;;;;5044703;28;20336;-75
2021/12/04 16:22:49;;;;;;;31.80;14.27;;;;;;;;;;5020120;28;20064;-75
2021/12/04 16:25:17;;;;;;;29.83;15.18;;;;;;;;;;5036883;28;20052;-75
2021/12/04 16:28:00;;;;;;;33.25;15.80;;;;;;;;;;5036402;28;20341;-75
2021/12/04 16:30:32;;;;;;;29.05;15.73;;;;;;;;;;5046695;28;20064;-75
2021/12/04 16:38:06;;;;;;;36.50;16.00;;;;;;;;;;5022720;28;20053;-74
2021/12/04 16:40:37;;;;;;;32.47;15.27;;;;;;;;;;5024662;28;20046;-75
2021/12/04 16:43:09;;;;;;;30.45;14.57;;;;;;;;;;5036686;28;20111;-74
2021/12/04 16:45:36;;;;;;;30.50;15.68;;;;;;;;;;5045457;28;20373;-75
2021/12/04 16:48:07;;;;;;;35.20;15.95;;;;;;;;;;5035612;28;20049;-74
2021/12/04 16:56:16;;;;;;;23.77;12.90;;;;;;;;;;5018931;28;20147;-80
2021/12/04 16:58:45;;;;;;;33.15;15.25;;;;;;;;;;5018045;28;20115;-74
2021/12/04 17:01:12;;;;;;;33.47;15.90;;;;;;;;;;5027710;28;20045;-80
2021/12/04 17:03:41;;;;;;;31.40;15.02;;;;;;;;;;5041721;28;20056;-85
2021/12/04 17:06:07;;;;;;;32.08;14.63;;;;;;;;;;5012127;28;20088;-79
2021/12/04 17:08:37;;;;;;;32.33;17.85;;;;;;;;;;5044669;28;20044;-80
2021/12/04 17:11:14;;;;;;;31.95;17.35;;;;;;;;;;5015162;28;20032;-85
2021/12/04 17:13:40;;;;;;;27.45;13.88;;;;;;;;;;5033919;28;20446;-76
2021/12/04 17:16:06;;;;;;;26.95;14.23;;;;;;;;;;5026572;28;20103;-77
2021/12/04 17:18:39;;;;;;;31.33;16.33;;;;;;;;;;5042359;28;20114;-78
2021/12/04 17:21:05;;;;;;;30.08;16.30;;;;;;;;;;5022135;28;20053;-78
2021/12/04 17:23:31;;;;;;;32.03;18.85;;;;;;;;;;5028693;28;20041;-75
2021/12/04 17:25:58;;;;;;;31.05;17.63;;;;;;;;;;5053848;28;20044;-76
2021/12/04 17:28:30;;;;;;;28.70;17.27;;;;;;;;;;5037908;28;20048;-77
2021/12/04 17:30:56;;;;;;;33.28;19.25;;;;;;;;;;5027831;28;20045;-78
2021/12/04 17:33:22;;;;;;;31.92;19.48;;;;;;;;;;5035745;28;20096;-78
2021/12/04 17:35:48;;;;;;;30.40;18.02;;;;;;;;;;5047488;28;20114;-76
2021/12/04 17:38:14;;;;;;;34.78;18.88;;;;;;;;;;5050845;28;20112;-78
2021/12/04 17:40:41;;;;;;;31.08;17.42;;;;;;;;;;5054297;28;20437;-78
2021/12/04 17:43:07;;;;;;;26.45;16.70;;;;;;;;;;5034004;28;20053;-77
2021/12/04 17:45:33;;;;;;;26.50;15.57;;;;;;;;;;5033072;28;20114;-77
2021/12/04 17:48:04;;;;;;;27.33;16.50;;;;;;;;;;5055037;28;20056;-76
2021/12/04 17:50:41;;;;;;;28.02;17.23;;;;;;;;;;5024982;28;20054;-80
2021/12/04 17:53:08;;;;;;;30.67;17.70;;;;;;;;;;5030139;28;20041;-77
2021/12/04 17:55:34;;;;;;;26.20;15.95;;;;;;;;;;5018845;28;20045;-78
2021/12/04 17:58:02;;;;;;;17.10;11.05;;;;;;;;;;5018785;28;20116;-77
2021/12/04 18:00:36;;;;;;;17.15;12.15;;;;;;;;;;5019945;28;20051;-79
2021/12/04 18:03:02;;;;;;;16.52;10.60;;;;;;;;;;5033228;28;20477;-80
2021/12/04 18:05:29;;;;;;;19.17;12.27;;;;;;;;;;5034471;28;20137;-78